createdAt,value
2022-12-25T00:00:31.370Z,9.10
2022-12-25T00:02:59.776Z,8.70
2022-12-25T00:05:28.218Z,8.43
2022-12-25T00:07:56.768Z,8.37
2022-12-25T00:10:25.537Z,8.53
2022-12-25T00:12:55.192Z,8.20
2022-12-25T00:15:23.552Z,8.40
2022-12-25T00:17:51.892Z,9.33
2022-12-25T00:20:20.368Z,9.30
2022-12-25T00:22:48.791Z,8.77
2022-12-25T00:25:17.097Z,8.93
2022-12-25T00:27:45.459Z,8.70
2022-12-25T00:30:15.360Z,8.33
2022-12-25T00:32:43.696Z,10.67
2022-12-25T00:35:12.067Z,10.80
2022-12-25T00:37:40.377Z,10.33
2022-12-25T00:40:09.633Z,9.33
2022-12-25T00:42:37.955Z,9.20
2022-12-25T00:45:06.917Z,8.80
2022-12-25T00:47:36.620Z,8.67
2022-12-25T00:50:05.556Z,8.60
2022-12-25T00:52:34.006Z,8.53
2022-12-25T00:55:02.405Z,8.40
2022-12-25T00:57:30.760Z,8.53
2022-12-25T00:59:59.074Z,8.17
2022-12-25T01:02:27.644Z,9.00
2022-12-25T01:04:58.292Z,8.83
2022-12-25T01:07:28.048Z,9.23
2022-12-25T01:10:13.613Z,9.53
2022-12-25T01:12:43.961Z,10.40
2022-12-25T01:15:14.005Z,9.77
2022-12-25T01:17:43.193Z,9.83
2022-12-25T01:20:14.749Z,10.07
2022-12-25T01:22:43.836Z,11.87
2022-12-25T01:25:12.967Z,11.13
2022-12-25T01:27:42.610Z,10.37
2022-12-25T01:30:11.870Z,10.03
2022-12-25T01:32:40.247Z,10.20
2022-12-25T01:35:09.236Z,10.13
2022-12-25T01:37:39.081Z,10.37
2022-12-25T01:40:08.766Z,10.47
2022-12-25T01:42:37.131Z,10.17
2022-12-25T01:45:36.879Z,10.50
2022-12-25T01:48:21.946Z,10.63
2022-12-25T01:50:55.177Z,10.40
2022-12-25T01:53:25.728Z,9.97
2022-12-25T01:55:58.720Z,9.20
2022-12-25T01:58:27.388Z,9.67
2022-12-25T02:00:55.932Z,8.93
2022-12-25T02:03:25.009Z,8.70
2022-12-25T02:05:53.711Z,7.73
2022-12-25T02:08:24.517Z,7.57
2022-12-25T02:10:52.919Z,8.13
2022-12-25T02:13:22.124Z,7.70
2022-12-25T02:16:00.216Z,7.60
2022-12-25T02:18:38.469Z,8.10
2022-12-25T02:21:34.227Z,7.97
2022-12-25T02:24:33.927Z,7.80
2022-12-25T02:27:10.096Z,8.07
2022-12-25T02:29:47.019Z,7.83
2022-12-25T02:32:21.622Z,8.20
2022-12-25T02:34:54.421Z,8.33
2022-12-25T02:37:31.939Z,8.30
2022-12-25T02:40:03.652Z,8.83
2022-12-25T02:42:55.136Z,8.70
2022-12-25T02:45:48.961Z,8.20
2022-12-25T02:48:37.060Z,8.87
2022-12-25T02:51:26.436Z,8.73
2022-12-25T02:54:15.128Z,7.80
2022-12-25T02:57:04.671Z,8.00
2022-12-25T02:59:54.998Z,8.50
2022-12-25T03:02:43.795Z,9.30
2022-12-25T03:05:33.610Z,8.80
2022-12-25T03:08:06.862Z,9.40
2022-12-25T03:10:55.816Z,9.30
2022-12-25T03:13:27.523Z,9.03
2022-12-25T03:16:13.929Z,9.37
2022-12-25T03:18:43.941Z,8.90
2022-12-25T03:21:29.991Z,9.13
2022-12-25T03:24:16.530Z,8.73
2022-12-25T03:26:58.057Z,8.37
2022-12-25T03:29:46.836Z,8.70
2022-12-25T03:32:27.316Z,8.60
2022-12-25T03:35:23.040Z,8.50
2022-12-25T03:38:27.441Z,8.17
2022-12-25T03:41:32.650Z,7.93
2022-12-25T03:44:24.305Z,7.87
2022-12-25T03:47:18.013Z,7.40
2022-12-25T03:50:09.381Z,8.30
2022-12-25T03:52:58.187Z,7.60
2022-12-25T03:55:44.650Z,7.30
2022-12-25T03:58:37.389Z,7.40
2022-12-25T04:01:23.364Z,7.33
2022-12-25T04:04:09.365Z,7.20
2022-12-25T04:06:55.132Z,7.50
2022-12-25T04:09:42.583Z,7.73
2022-12-25T04:12:28.770Z,7.90
2022-12-25T04:15:29.293Z,7.27
2022-12-25T04:18:15.174Z,7.90
2022-12-25T04:21:01.089Z,7.30
2022-12-25T04:23:47.448Z,7.60
2022-12-25T04:26:34.267Z,7.80
2022-12-25T04:29:20.132Z,7.83
2022-12-25T04:32:05.732Z,8.13
2022-12-25T04:34:51.337Z,8.20
2022-12-25T04:37:19.670Z,8.53
2022-12-25T04:39:48.019Z,8.70
2022-12-25T04:42:18.560Z,9.10
2022-12-25T04:44:46.888Z,8.90
2022-12-25T04:47:15.242Z,8.87
2022-12-25T04:49:43.678Z,9.13
2022-12-25T04:52:11.933Z,8.43
2022-12-25T04:54:40.513Z,9.70
2022-12-25T04:57:08.875Z,9.63
2022-12-25T04:59:38.510Z,9.17
2022-12-25T05:02:06.981Z,9.63
2022-12-25T05:04:35.690Z,9.77
2022-12-25T05:07:04.016Z,10.13
2022-12-25T05:09:32.404Z,9.23
2022-12-25T05:12:00.756Z,8.80
2022-12-25T05:14:29.302Z,8.57
2022-12-25T05:16:59.056Z,9.47
2022-12-25T05:19:28.138Z,8.50
2022-12-25T05:21:56.700Z,8.10
2022-12-25T05:24:27.895Z,8.50
2022-12-25T05:26:56.492Z,8.43
2022-12-25T05:29:24.796Z,8.20
2022-12-25T05:31:53.149Z,8.23
2022-12-25T05:34:22.862Z,8.17
2022-12-25T05:36:51.216Z,8.20
2022-12-25T05:39:19.691Z,8.47
2022-12-25T05:41:48.201Z,8.17
2022-12-25T05:44:16.544Z,8.30
2022-12-25T05:46:44.967Z,8.70
2022-12-25T05:49:13.433Z,8.13
2022-12-25T05:51:43.040Z,8.50
2022-12-25T05:54:11.352Z,8.63
2022-12-25T05:56:39.762Z,8.60
2022-12-25T05:59:08.151Z,8.37
2022-12-25T06:01:36.572Z,9.40
2022-12-25T06:04:11.983Z,9.10
2022-12-25T06:06:42.448Z,8.37
2022-12-25T06:09:12.766Z,8.90
2022-12-25T06:11:41.702Z,8.23
2022-12-25T06:14:12.836Z,8.00
2022-12-25T06:16:41.341Z,8.50
2022-12-25T06:19:09.781Z,8.43
2022-12-25T06:21:38.229Z,10.30
2022-12-25T06:24:08.403Z,10.43
2022-12-25T06:26:38.024Z,10.20
2022-12-25T06:29:06.488Z,11.70
2022-12-25T06:31:34.881Z,11.33
2022-12-25T06:34:03.239Z,10.60
2022-12-25T06:36:31.620Z,10.47
2022-12-25T06:39:02.065Z,11.70
2022-12-25T06:41:32.437Z,10.30
2022-12-25T06:44:02.411Z,10.33
2022-12-25T06:46:32.156Z,9.60
2022-12-25T06:49:01.251Z,8.97
2022-12-25T06:51:31.512Z,10.13
2022-12-25T06:54:03.091Z,12.00
2022-12-25T06:56:33.831Z,11.40
2022-12-25T06:59:03.524Z,10.17
2022-12-25T07:01:35.490Z,10.03
2022-12-25T07:04:06.930Z,9.93
2022-12-25T07:06:35.642Z,9.97
2022-12-25T07:09:04.433Z,9.90
2022-12-25T07:11:34.129Z,22.63
2022-12-25T07:14:02.559Z,14.67
2022-12-25T07:16:30.944Z,12.23
2022-12-25T07:19:00.982Z,9.70
2022-12-25T07:21:29.406Z,8.63
2022-12-25T07:23:57.689Z,7.13
2022-12-25T07:26:26.080Z,6.43
2022-12-25T07:28:56.594Z,5.97
2022-12-25T07:31:25.051Z,5.53
2022-12-25T07:33:54.954Z,5.57
2022-12-25T07:36:23.512Z,5.83
2022-12-25T07:38:52.240Z,5.53
2022-12-25T07:41:20.552Z,6.20
2022-12-25T07:43:52.028Z,6.73
2022-12-25T07:46:22.768Z,7.57
2022-12-25T07:48:52.000Z,7.97
2022-12-25T07:51:20.426Z,8.47
2022-12-25T07:53:48.811Z,12.60
2022-12-25T07:56:19.203Z,13.70
2022-12-25T07:58:48.451Z,12.53
2022-12-25T08:01:20.300Z,11.93
2022-12-25T08:03:53.303Z,15.03
2022-12-25T08:06:23.227Z,16.13
2022-12-25T08:08:51.648Z,12.80
2022-12-25T08:11:19.980Z,13.00
2022-12-25T08:13:48.424Z,12.40
2022-12-25T08:16:16.833Z,11.70
2022-12-25T08:18:45.113Z,16.23
2022-12-25T08:21:16.880Z,15.53
2022-12-25T08:23:47.094Z,14.47
2022-12-25T08:26:17.560Z,16.67
2022-12-25T08:28:46.307Z,15.00
2022-12-25T08:31:17.612Z,13.70
2022-12-25T08:33:46.306Z,13.00
2022-12-25T08:36:16.529Z,13.20
2022-12-25T08:38:44.915Z,11.03
2022-12-25T08:41:14.438Z,11.80
2022-12-25T08:43:43.092Z,14.17
2022-12-25T08:46:11.872Z,17.10
2022-12-25T08:48:42.729Z,14.50
2022-12-25T08:51:15.677Z,12.00
2022-12-25T08:53:47.714Z,10.87
2022-12-25T08:56:17.109Z,11.20
2022-12-25T08:58:45.603Z,11.70
2022-12-25T09:01:14.773Z,13.50
2022-12-25T09:03:43.596Z,11.90
2022-12-25T09:06:14.404Z,10.40
2022-12-25T09:08:48.544Z,10.50
2022-12-25T09:11:20.406Z,10.43
2022-12-25T09:13:49.641Z,11.33
2022-12-25T09:16:21.240Z,10.00
2022-12-25T09:18:49.827Z,10.60
2022-12-25T09:21:19.550Z,9.93
2022-12-25T09:23:47.882Z,9.93
2022-12-25T09:26:19.602Z,10.00
2022-12-25T09:28:51.899Z,10.03
2022-12-25T09:31:22.731Z,9.57
2022-12-25T09:33:52.005Z,10.53
2022-12-25T09:36:21.547Z,9.80
2022-12-25T09:38:49.959Z,11.50
2022-12-25T09:41:28.199Z,12.70
2022-12-25T09:44:00.929Z,10.63
2022-12-25T09:46:36.933Z,12.13
2022-12-25T09:49:11.682Z,11.40
2022-12-25T09:51:42.326Z,13.37
2022-12-25T09:54:18.278Z,10.03
2022-12-25T09:56:47.991Z,10.40
2022-12-25T09:59:24.660Z,10.80
2022-12-25T10:02:18.112Z,10.60
2022-12-25T10:05:00.354Z,12.20
2022-12-25T10:07:36.295Z,11.23
2022-12-25T10:10:18.223Z,11.73
2022-12-25T10:12:58.940Z,10.87
2022-12-25T10:15:37.867Z,13.03
2022-12-25T10:18:40.091Z,13.57
2022-12-25T10:21:13.584Z,13.07
2022-12-25T10:23:45.308Z,14.67
2022-12-25T10:26:17.282Z,13.57
2022-12-25T10:28:50.270Z,14.40
2022-12-25T10:31:23.663Z,11.73
2022-12-25T10:33:53.817Z,11.63
2022-12-25T10:36:25.562Z,10.63
2022-12-25T10:38:55.072Z,10.27
2022-12-25T10:41:37.506Z,10.07
2022-12-25T10:44:15.806Z,10.90
2022-12-25T10:46:50.320Z,9.67
2022-12-25T10:49:21.581Z,10.70
2022-12-25T10:51:50.659Z,10.40
2022-12-25T10:54:24.223Z,10.60
2022-12-25T10:56:58.004Z,14.40
2022-12-25T10:59:28.827Z,20.43
2022-12-25T11:02:05.091Z,11.97
2022-12-25T11:04:36.750Z,11.63
2022-12-25T11:07:08.670Z,10.43
2022-12-25T11:09:37.422Z,10.83
2022-12-25T11:12:06.830Z,9.47
2022-12-25T11:14:36.550Z,12.30
2022-12-25T11:17:11.559Z,9.77
2022-12-25T11:19:39.947Z,10.00
2022-12-25T11:22:19.740Z,10.50
2022-12-25T11:24:48.184Z,10.00
2022-12-25T11:27:23.820Z,11.70
2022-12-25T11:29:57.319Z,10.43
2022-12-25T11:32:31.213Z,9.20
2022-12-25T11:35:00.347Z,9.97
2022-12-25T11:37:33.479Z,10.00
2022-12-25T11:40:02.051Z,10.33
2022-12-25T11:42:36.172Z,11.57
2022-12-25T11:45:10.019Z,11.07
2022-12-25T11:47:43.378Z,11.30
2022-12-25T11:50:23.548Z,11.40
2022-12-25T11:52:54.280Z,11.20
2022-12-25T11:55:30.670Z,11.13
2022-12-25T11:58:04.031Z,12.23
2022-12-25T12:00:36.595Z,12.43
2022-12-25T12:03:13.141Z,11.93
2022-12-25T12:05:47.904Z,12.87
2022-12-25T12:08:16.228Z,13.40
2022-12-25T12:10:59.586Z,12.77
2022-12-25T12:13:46.157Z,12.23
2022-12-25T12:16:15.997Z,12.53
2022-12-25T12:18:50.254Z,12.63
2022-12-25T12:21:24.306Z,11.63
2022-12-25T12:23:57.940Z,12.63
2022-12-25T12:26:28.508Z,10.57
2022-12-25T12:29:00.401Z,10.73
2022-12-25T12:31:41.240Z,10.77
2022-12-25T12:34:22.897Z,10.87
2022-12-25T12:36:53.688Z,9.83
2022-12-25T12:39:26.572Z,10.90
2022-12-25T12:41:55.243Z,10.93
2022-12-25T12:44:28.079Z,10.90
2022-12-25T12:46:58.683Z,11.03
2022-12-25T12:49:29.724Z,10.90
2022-12-25T12:52:07.977Z,9.70
2022-12-25T12:54:56.651Z,9.37
2022-12-25T12:57:27.074Z,10.00
2022-12-25T12:59:55.461Z,10.53
2022-12-25T13:02:53.496Z,10.63
2022-12-25T13:05:34.489Z,11.23
2022-12-25T13:08:13.223Z,11.00
2022-12-25T13:10:47.827Z,12.47
2022-12-25T13:13:21.391Z,11.90
2022-12-25T13:15:51.850Z,10.37
2022-12-25T13:18:22.280Z,10.43
2022-12-25T13:20:56.325Z,11.33
2022-12-25T13:23:27.996Z,12.27
2022-12-25T13:25:57.877Z,10.73
2022-12-25T13:28:27.960Z,13.07
2022-12-25T13:31:03.728Z,13.27
2022-12-25T13:33:33.959Z,13.17
2022-12-25T13:36:02.540Z,13.97
2022-12-25T13:38:30.989Z,12.87
2022-12-25T13:41:17.689Z,12.67
2022-12-25T13:43:47.075Z,12.43
2022-12-25T13:46:16.614Z,11.90
2022-12-25T13:48:46.342Z,11.30
2022-12-25T13:51:17.864Z,11.03
2022-12-25T13:53:46.177Z,11.40
2022-12-25T13:56:17.035Z,13.23
2022-12-25T13:58:48.571Z,15.37
2022-12-25T14:01:18.779Z,15.63
2022-12-25T14:03:49.413Z,13.30
2022-12-25T14:06:20.739Z,13.83
2022-12-25T14:08:50.073Z,14.03
2022-12-25T14:11:22.762Z,14.93
2022-12-25T14:13:53.065Z,14.87
2022-12-25T14:16:22.731Z,14.53
2022-12-25T14:18:55.468Z,13.10
2022-12-25T14:21:29.756Z,12.93
2022-12-25T14:23:58.330Z,13.03
2022-12-25T14:26:29.377Z,16.40
2022-12-25T14:29:13.951Z,16.93
2022-12-25T14:31:46.474Z,19.50
2022-12-25T14:34:22.144Z,16.63
2022-12-25T14:36:51.677Z,15.47
2022-12-25T14:39:34.800Z,14.30
2022-12-25T14:42:12.407Z,12.80
2022-12-25T14:44:41.898Z,12.50
2022-12-25T14:47:19.955Z,12.23
2022-12-25T14:49:49.802Z,13.07
2022-12-25T14:52:21.400Z,12.23
2022-12-25T14:54:53.384Z,13.70
2022-12-25T14:57:28.208Z,12.80
2022-12-25T15:00:02.882Z,12.77
2022-12-25T15:02:41.096Z,10.93
2022-12-25T15:08:23.300Z,12.93
2022-12-25T15:11:01.692Z,13.90
2022-12-25T15:13:32.193Z,15.57
2022-12-25T15:16:04.942Z,14.00
2022-12-25T15:18:38.218Z,15.53
2022-12-25T15:21:07.146Z,15.27
2022-12-25T15:23:36.833Z,13.80
2022-12-25T15:26:05.317Z,13.60
2022-12-25T15:28:34.350Z,14.43
2022-12-25T15:31:02.701Z,13.70
2022-12-25T15:33:31.395Z,14.37
2022-12-25T15:35:59.702Z,13.50
2022-12-25T15:38:28.112Z,14.30
2022-12-25T15:40:57.904Z,14.50
2022-12-25T15:43:41.827Z,14.10
2022-12-25T15:46:11.077Z,13.00
2022-12-25T15:48:39.447Z,16.03
2022-12-25T15:51:07.957Z,15.90
2022-12-25T15:53:36.352Z,16.73
2022-12-25T15:56:06.400Z,16.30
2022-12-25T15:58:34.761Z,21.57
2022-12-25T16:01:03.351Z,20.70
2022-12-25T16:03:31.829Z,19.63
2022-12-25T16:06:00.323Z,19.70
2022-12-25T16:08:28.823Z,19.63
2022-12-25T16:10:57.299Z,16.63
2022-12-25T16:13:26.939Z,14.43
2022-12-25T16:15:55.367Z,13.80
2022-12-25T16:18:24.038Z,14.47
2022-12-25T16:20:53.009Z,13.50
2022-12-25T16:23:21.616Z,13.20
2022-12-25T16:25:50.155Z,14.63
2022-12-25T16:28:18.657Z,13.40
2022-12-25T16:30:48.522Z,14.37
2022-12-25T16:33:16.978Z,16.53
2022-12-25T16:35:47.168Z,16.13
2022-12-25T16:38:15.529Z,15.80
2022-12-25T16:40:44.734Z,19.80
2022-12-25T16:43:15.364Z,22.03
2022-12-25T16:45:48.649Z,22.27
2022-12-25T16:48:17.011Z,22.33
2022-12-25T16:50:45.669Z,24.23
2022-12-25T16:53:14.036Z,22.37
2022-12-25T16:55:42.391Z,23.47
2022-12-25T16:58:10.771Z,24.47
2022-12-25T17:00:42.069Z,20.83
2022-12-25T17:03:14.170Z,20.20
2022-12-25T17:05:42.701Z,18.83
2022-12-25T17:08:11.062Z,20.67
2022-12-25T17:10:40.004Z,17.63
2022-12-25T17:13:08.349Z,14.87
2022-12-25T17:15:36.811Z,14.80
2022-12-25T17:18:05.518Z,13.77
2022-12-25T17:20:36.091Z,12.90
2022-12-25T17:23:04.537Z,12.33
2022-12-25T17:25:34.789Z,14.83
2022-12-25T17:28:03.203Z,13.30
2022-12-25T17:30:31.503Z,12.70
2022-12-25T17:32:59.840Z,11.83
2022-12-25T17:35:28.525Z,12.27
2022-12-25T17:37:58.170Z,14.27
2022-12-25T17:40:26.625Z,14.23
2022-12-25T17:42:55.051Z,13.83
2022-12-25T17:45:23.387Z,13.27
2022-12-25T17:47:55.067Z,14.00
2022-12-25T17:50:25.616Z,14.30
2022-12-25T17:52:54.162Z,13.67
2022-12-25T17:55:23.869Z,13.37
2022-12-25T17:57:52.199Z,18.30
2022-12-25T18:00:21.022Z,16.93
2022-12-25T18:02:49.578Z,16.03
2022-12-25T18:05:18.086Z,14.33
2022-12-25T18:07:46.501Z,17.00
2022-12-25T18:10:15.856Z,18.57
2022-12-25T18:12:46.286Z,18.37
2022-12-25T18:15:14.704Z,16.20
2022-12-25T18:17:43.099Z,15.17
2022-12-25T18:20:12.075Z,13.50
2022-12-25T18:22:40.382Z,13.37
2022-12-25T18:25:09.525Z,12.70
2022-12-25T18:27:37.856Z,12.00
2022-12-25T18:30:08.595Z,12.27
2022-12-25T18:32:36.945Z,11.10
2022-12-25T18:35:05.663Z,11.87
2022-12-25T18:37:39.937Z,12.60
2022-12-25T18:40:09.810Z,12.80
2022-12-25T18:42:41.424Z,13.93
2022-12-25T18:45:13.808Z,14.37
2022-12-25T18:47:42.587Z,14.33
2022-12-25T18:50:12.126Z,15.70
2022-12-25T18:52:47.852Z,14.63
2022-12-25T18:55:19.897Z,13.63
2022-12-25T18:57:49.567Z,14.03
2022-12-25T19:00:19.931Z,12.67
2022-12-25T19:02:48.569Z,12.40
2022-12-25T19:05:17.597Z,13.80
2022-12-25T19:07:45.924Z,13.57
2022-12-25T19:10:15.578Z,17.43
2022-12-25T19:12:44.134Z,13.80
2022-12-25T19:15:13.074Z,15.63
2022-12-25T19:17:42.769Z,14.67
2022-12-25T19:20:12.638Z,16.80
2022-12-25T19:22:40.921Z,15.43
2022-12-25T19:25:09.891Z,16.37
2022-12-25T19:27:38.298Z,16.30
2022-12-25T19:30:07.387Z,17.13
2022-12-25T19:32:35.835Z,16.20
2022-12-25T19:35:06.428Z,15.60
2022-12-25T19:37:36.331Z,15.23
2022-12-25T19:40:05.332Z,14.30
2022-12-25T19:42:33.820Z,16.03
2022-12-25T19:45:03.192Z,16.33
2022-12-25T19:47:31.487Z,16.17
2022-12-25T19:50:02.931Z,19.20
2022-12-25T19:52:33.238Z,21.30
2022-12-25T19:55:01.704Z,20.03
2022-12-25T19:57:30.159Z,17.50
2022-12-25T19:59:58.473Z,18.03
2022-12-25T20:02:27.188Z,17.93
2022-12-25T20:04:55.629Z,16.00
2022-12-25T20:07:24.080Z,15.50
2022-12-25T20:09:53.767Z,16.13
2022-12-25T20:12:22.140Z,18.13
2022-12-25T20:14:53.429Z,16.67
2022-12-25T20:17:21.812Z,15.60
2022-12-25T20:19:50.135Z,15.27
2022-12-25T20:22:18.521Z,14.13
2022-12-25T20:24:47.814Z,16.27
2022-12-25T20:27:17.550Z,15.83
2022-12-25T20:29:45.912Z,15.83
2022-12-25T20:32:14.725Z,14.67
2022-12-25T20:34:43.104Z,14.93
2022-12-25T20:37:11.445Z,14.87
2022-12-25T20:39:39.961Z,16.50
2022-12-25T20:42:08.319Z,16.33
2022-12-25T20:44:38.036Z,16.13
2022-12-25T20:47:06.603Z,15.30
2022-12-25T20:49:35.029Z,15.97
2022-12-25T20:52:05.880Z,14.47
2022-12-25T20:54:34.768Z,14.93
2022-12-25T20:57:03.140Z,14.67
2022-12-25T20:59:37.230Z,14.10
2022-12-25T21:02:07.906Z,14.77
2022-12-25T21:04:36.460Z,15.90
2022-12-25T21:07:05.313Z,14.87
2022-12-25T21:09:34.677Z,15.63
2022-12-25T21:12:03.312Z,13.97
2022-12-25T21:14:31.964Z,13.73
2022-12-25T21:17:00.392Z,13.70
2022-12-25T21:19:30.203Z,13.97
2022-12-25T21:21:58.497Z,14.07
2022-12-25T21:24:26.887Z,15.33
2022-12-25T21:26:55.292Z,13.87
2022-12-25T21:29:24.515Z,14.13
2022-12-25T21:32:12.460Z,13.47
2022-12-25T21:34:42.166Z,12.97
2022-12-25T21:37:10.618Z,13.10
2022-12-25T21:39:39.069Z,12.93
2022-12-25T21:42:07.753Z,13.20
2022-12-25T21:44:36.303Z,13.30
2022-12-25T21:47:04.782Z,13.40
2022-12-25T21:49:50.769Z,14.27
2022-12-25T21:52:20.477Z,13.23
2022-12-25T21:54:48.757Z,13.93
2022-12-25T21:57:17.077Z,13.90
2022-12-25T21:59:45.562Z,14.07
2022-12-25T22:02:14.124Z,14.37
2022-12-25T22:04:42.719Z,13.57
2022-12-25T22:07:19.167Z,13.63
2022-12-25T22:09:51.207Z,12.50
2022-12-25T22:12:39.321Z,19.97
2022-12-25T22:15:10.565Z,22.23
2022-12-25T22:17:57.477Z,26.07
2022-12-25T22:20:28.042Z,27.00
2022-12-25T22:22:56.820Z,22.33
2022-12-25T22:25:26.802Z,20.60
2022-12-25T22:27:55.712Z,17.50
2022-12-25T22:30:25.895Z,22.40
2022-12-25T22:32:54.560Z,20.83
2022-12-25T22:35:23.166Z,20.60
2022-12-25T22:37:51.550Z,16.30
2022-12-25T22:40:21.277Z,14.97
2022-12-25T22:42:50.893Z,15.77
2022-12-25T22:45:19.301Z,13.97
2022-12-25T22:47:47.782Z,16.67
2022-12-25T22:50:16.807Z,15.13
2022-12-25T22:52:46.828Z,14.43
2022-12-25T22:55:19.330Z,15.00
2022-12-25T22:57:49.084Z,15.10
2022-12-25T23:00:18.824Z,15.43
2022-12-25T23:02:47.469Z,13.93
2022-12-25T23:05:16.322Z,16.00
2022-12-25T23:07:44.899Z,15.07
2022-12-25T23:10:13.566Z,15.73
2022-12-25T23:13:00.239Z,15.77
2022-12-25T23:15:30.155Z,13.23
2022-12-25T23:18:16.060Z,17.97
2022-12-25T23:21:01.968Z,16.60
2022-12-25T23:23:48.241Z,14.97
2022-12-25T23:26:19.279Z,15.33
2022-12-25T23:29:05.902Z,17.40
2022-12-25T23:31:38.228Z,15.73
2022-12-25T23:34:08.029Z,15.37
2022-12-25T23:36:37.005Z,14.33
2022-12-25T23:39:10.140Z,14.07
2022-12-25T23:41:39.973Z,14.10
2022-12-25T23:44:09.120Z,14.07
2022-12-25T23:46:39.336Z,13.50
2022-12-25T23:49:08.332Z,14.60
2022-12-25T23:51:37.654Z,14.60
2022-12-25T23:54:06.702Z,14.43
2022-12-25T23:56:35.304Z,14.13
2022-12-25T23:59:04.207Z,14.23
